Ormond Beach, FL

9:43 AM EST on December 04, 2016 (GMT -0500)
pines | | Change Station

Elev 20 ft 29.25 °N, 81.09 °W | Updated 59 days ago

Mostly Cloudy
Mostly Cloudy
76 °F
Feels Like 76 °F
N
12
Wind Variable Wind from SE
Gusts mph

Today
High -- | Low -- °F
--% Chance of Precip.
Yesterday
High -- | Low -- °F
Precip. -- in
Pressure 30.11 in
Visibility 10.0 miles
Clouds Clear
Dew Point 61 °F
Humidity 58%
Rainfall in
Snow Depth Not available.
7:03 AM 5:25 PM
Waxing Crescent, 23% visible
METAR KOMN 041450Z 11010KT 10SM SKC 23/16 A3011
Pressure 30.11 in
Visibility 10.0 miles
Clouds Clear
Dew Point 61 °F
Humidity 58%
Rainfall in
Snow Depth Not available.
7:03 AM 5:25 PM
Waxing Crescent, 23% visible
METAR KOMN 041450Z 11010KT 10SM SKC 23/16 A3011

10-Day Weather Forecast

Almanac

Astronomy

Dec. 04, 2016 Rise Set
Actual Time
Civil Twilight
Nautical Twilight
Astronomical Twilight
Moon
Length of Visible Light
Length of Day
Tomorrow will be .
, % of the Moon is Illuminated

Today's Extremes

State Highs State Lows

Community

WunderPhotos

Upload Photos

1,955,602 photos uploaded!

WunderBlog® & News

Nearby

Air Quality

  Air Quality AQ Index Pollutant
Not available.

Snow Depth

Station Depth Elevation

Earthquake Activity

City Distance Mag. Time & Date
Minimum magnitude displayed is 2.5.

Coastal Water Temperatures

Place Temperature

Stations

Nearby Weather Stations

Station Location Temp. Windchill Dew Point Humidity Wind Precip. Elev Updated Type
                   

Watches & Warnings

There are currently no watches in effect.